createdAt,value
2019-01-15T00:02:15.601Z,74.86
2019-01-15T00:04:54.777Z,75.14
2019-01-15T00:07:24.248Z,74.72
2019-01-15T00:09:54.455Z,75.11
2019-01-15T00:12:23.715Z,74.41
2019-01-15T00:14:54.122Z,74.52
2019-01-15T00:17:24.098Z,74.87
2019-01-15T00:19:59.909Z,75.09
2019-01-15T00:22:29.155Z,75.18
2019-01-15T00:25:00.052Z,74.14
2019-01-15T00:27:29.487Z,73.72
2019-01-15T00:29:58.854Z,74.09
2019-01-15T00:32:30.724Z,73.87
2019-01-15T00:35:00.724Z,73.09
2019-01-15T00:37:37.099Z,73.81
2019-01-15T00:40:16.527Z,72.84
2019-01-15T00:42:46.190Z,72.93
2019-01-15T00:45:16.019Z,72.47
2019-01-15T00:47:45.292Z,72.31
2019-01-15T00:50:16.905Z,72.26
2019-01-15T00:52:46.200Z,72.56
2019-01-15T00:55:15.517Z,72.57
2019-01-15T00:57:44.806Z,73.04
2019-01-15T01:00:18.304Z,72.77
2019-01-15T01:02:47.587Z,73.21
2019-01-15T01:05:17.682Z,76.22
2019-01-15T01:07:49.321Z,76.47
2019-01-15T01:10:19.034Z,75.67
2019-01-15T01:12:48.482Z,77.19
2019-01-15T01:15:19.707Z,78.64
2019-01-15T01:17:51.497Z,80.06
2019-01-15T01:20:24.306Z,80.66
2019-01-15T01:22:53.600Z,81.03
2019-01-15T01:25:22.919Z,81.15
2019-01-15T01:27:58.365Z,81.81
2019-01-15T01:30:30.967Z,82.25
2019-01-15T01:33:00.892Z,82.26
2019-01-15T01:35:30.213Z,82.01
2019-01-15T01:37:59.452Z,82.19
2019-01-15T01:40:29.026Z,81.68
2019-01-15T01:42:58.374Z,81.81
2019-01-15T01:45:27.723Z,81.72
2019-01-15T01:47:57.551Z,82.50
2019-01-15T01:50:29.197Z,83.09
2019-01-15T01:53:00.625Z,82.44
2019-01-15T01:55:34.991Z,82.37
2019-01-15T01:58:04.327Z,82.79
2019-01-15T02:00:35.703Z,81.73
2019-01-15T02:03:04.949Z,81.18
2019-01-15T02:05:35.823Z,80.55
2019-01-15T02:08:07.074Z,79.53
2019-01-15T02:10:41.151Z,78.95
2019-01-15T02:13:10.808Z,79.30
2019-01-15T02:30:36.140Z,77.77
2019-01-15T02:33:05.729Z,77.76
2019-01-15T02:35:34.988Z,77.95
2019-01-15T02:38:06.742Z,77.59
2019-01-15T02:40:36.069Z,76.83
2019-01-15T02:43:05.485Z,76.65
2019-01-15T02:45:34.870Z,76.76
2019-01-15T02:48:04.275Z,76.31
2019-01-15T02:50:33.619Z,75.74
2019-01-15T02:53:03.193Z,76.04
2019-01-15T02:55:32.685Z,76.27
2019-01-15T02:58:04.842Z,76.39
2019-01-15T03:00:34.229Z,75.30
2019-01-15T03:03:03.517Z,75.38
2019-01-15T03:05:32.822Z,75.47
2019-01-15T03:08:02.189Z,75.69
2019-01-15T03:10:31.431Z,75.46
2019-01-15T03:13:01.038Z,75.16
2019-01-15T03:15:30.448Z,75.06
2019-01-15T03:17:59.776Z,74.07
2019-01-15T03:20:29.090Z,74.78
2019-01-15T03:22:58.404Z,74.94
2019-01-15T03:25:27.700Z,74.08
2019-01-15T03:27:57.145Z,74.22
2019-01-15T03:30:26.372Z,74.13
2019-01-15T03:32:55.823Z,74.23
2019-01-15T03:35:25.112Z,74.92
2019-01-15T03:37:54.421Z,74.77
2019-01-15T03:40:27.512Z,74.20
2019-01-15T03:43:03.396Z,74.39
2019-01-15T03:45:27.949Z,74.38
2019-01-15T03:47:57.265Z,74.53
2019-01-15T03:50:26.602Z,74.12
2019-01-15T03:52:55.899Z,74.24
2019-01-15T03:55:25.169Z,73.94
2019-01-15T03:57:54.487Z,73.99
2019-01-15T04:00:25.415Z,73.63
2019-01-15T04:02:55.606Z,74.29
2019-01-15T04:05:25.087Z,74.58
2019-01-15T04:07:58.695Z,74.50
2019-01-15T04:10:28.277Z,74.60
2019-01-15T04:12:57.691Z,74.40
2019-01-15T04:15:26.941Z,74.15
2019-01-15T04:17:56.215Z,74.04
2019-01-15T04:20:25.640Z,73.62
2019-01-15T04:22:54.885Z,74.22
2019-01-15T04:25:24.385Z,74.14
2019-01-15T04:27:53.648Z,74.36
2019-01-15T04:30:24.202Z,73.42
2019-01-15T04:32:53.444Z,73.79
2019-01-15T04:35:22.686Z,73.57
2019-01-15T04:37:51.961Z,73.76
2019-01-15T04:40:22.300Z,73.69
2019-01-15T04:42:52.141Z,73.20
2019-01-15T04:45:23.160Z,73.42
2019-01-15T04:47:52.402Z,72.79
2019-01-15T04:50:21.651Z,72.93
2019-01-15T04:52:58.527Z,73.00
2019-01-15T04:55:27.915Z,73.56
2019-01-15T04:57:57.137Z,73.70
2019-01-15T05:00:26.383Z,74.21
2019-01-15T05:02:57.564Z,74.41
2019-01-15T05:05:26.804Z,74.37
2019-01-15T05:07:56.018Z,74.52
2019-01-15T05:10:25.252Z,73.46
2019-01-15T05:12:54.467Z,74.25
2019-01-15T05:15:23.698Z,74.54
2019-01-15T05:17:52.903Z,74.39
2019-01-15T05:20:22.138Z,74.37
2019-01-15T05:22:51.353Z,74.36
2019-01-15T05:25:21.063Z,74.51
2019-01-15T05:27:50.288Z,75.04
2019-01-15T05:30:21.462Z,75.21
2019-01-15T05:32:50.675Z,75.33
2019-01-15T05:35:19.913Z,75.97
2019-01-15T05:37:49.122Z,75.76
2019-01-15T05:40:18.418Z,75.81
2019-01-15T05:42:47.730Z,76.06
2019-01-15T05:45:26.736Z,75.92
2019-01-15T05:47:57.247Z,76.07
2019-01-15T05:50:36.816Z,76.20
2019-01-15T05:53:06.131Z,76.17
2019-01-15T05:55:35.385Z,75.86
2019-01-15T05:58:04.687Z,75.75
2019-01-15T06:00:33.938Z,75.83
2019-01-15T06:03:03.154Z,76.21
2019-01-15T06:05:32.383Z,76.32
2019-01-15T06:08:01.606Z,75.84
2019-01-15T06:10:30.847Z,76.43
2019-01-15T06:13:00.062Z,76.61
2019-01-15T06:15:29.414Z,76.86
2019-01-15T06:17:58.648Z,76.81
2019-01-15T06:20:27.886Z,77.09
2019-01-15T06:22:57.099Z,77.43
2019-01-15T06:25:26.357Z,77.06
2019-01-15T06:27:55.746Z,77.16
2019-01-15T06:30:24.957Z,77.24
2019-01-15T06:32:54.202Z,77.21
2019-01-15T06:35:23.430Z,76.95
2019-01-15T06:37:52.715Z,76.96
2019-01-15T06:40:21.975Z,76.65
2019-01-15T06:42:51.197Z,75.90
2019-01-15T06:45:22.248Z,76.37
2019-01-15T06:47:51.759Z,76.84
2019-01-15T06:50:21.168Z,76.67
2019-01-15T06:52:50.718Z,76.98
2019-01-15T06:55:20.260Z,76.91
2019-01-15T06:57:49.703Z,76.88
2019-01-15T07:00:24.264Z,76.57
2019-01-15T07:02:53.509Z,76.90
2019-01-15T07:05:22.936Z,77.46
2019-01-15T07:07:52.188Z,77.21
2019-01-15T07:10:24.150Z,77.30
2019-01-15T07:12:53.397Z,77.70
2019-01-15T07:15:22.672Z,77.42
2019-01-15T07:17:51.910Z,77.46
2019-01-15T07:20:21.207Z,77.87
2019-01-15T07:22:50.449Z,77.13
2019-01-15T07:25:20.462Z,78.01
2019-01-15T07:27:49.712Z,78.16
2019-01-15T07:30:21.924Z,78.16
2019-01-15T07:32:51.160Z,78.16
2019-01-15T07:35:20.373Z,78.02
2019-01-15T07:37:49.677Z,78.03
2019-01-15T07:40:18.909Z,78.36
2019-01-15T07:42:48.130Z,78.12
2019-01-15T07:45:17.343Z,78.31
2019-01-15T07:47:46.568Z,78.46
2019-01-15T07:50:17.136Z,78.36
2019-01-15T07:52:47.839Z,78.17
2019-01-15T07:55:17.704Z,78.93
2019-01-15T07:57:46.949Z,78.44
2019-01-15T08:00:18.959Z,78.35
2019-01-15T08:02:48.584Z,78.17
2019-01-15T08:05:19.417Z,78.65
2019-01-15T08:07:48.884Z,78.81
2019-01-15T08:10:19.948Z,79.09
2019-01-15T08:12:49.392Z,78.82
2019-01-15T08:15:21.003Z,79.40
2019-01-15T08:17:50.253Z,79.00
2019-01-15T08:20:19.677Z,79.14
2019-01-15T08:22:48.908Z,79.02
2019-01-15T08:25:18.134Z,79.13
2019-01-15T08:27:47.381Z,79.10
2019-01-15T08:30:19.244Z,78.95
2019-01-15T08:32:48.532Z,79.06
2019-01-15T08:35:17.831Z,78.74
2019-01-15T08:37:47.060Z,78.71
2019-01-15T08:40:16.398Z,77.96
2019-01-15T08:42:45.824Z,78.23
2019-01-15T08:45:15.717Z,78.26
2019-01-15T08:47:47.175Z,78.12
2019-01-15T08:50:18.697Z,77.79
2019-01-15T08:52:47.910Z,77.89
2019-01-15T08:55:17.147Z,77.69
2019-01-15T08:57:46.342Z,77.71
2019-01-15T09:00:15.820Z,77.14
2019-01-15T09:02:45.182Z,77.15
2019-01-15T09:05:14.377Z,76.79
2019-01-15T09:07:43.600Z,75.79
2019-01-15T09:10:14.304Z,76.25
2019-01-15T09:12:44.224Z,75.51
2019-01-15T09:15:14.728Z,75.26
2019-01-15T09:17:43.932Z,75.46
2019-01-15T09:20:15.869Z,75.18
2019-01-15T09:22:45.080Z,75.13
2019-01-15T09:25:14.427Z,75.14
2019-01-15T09:27:43.843Z,74.52
2019-01-15T09:30:15.885Z,74.75
2019-01-15T09:32:45.460Z,74.74
2019-01-15T09:35:14.741Z,74.56
2019-01-15T09:37:45.356Z,74.44
2019-01-15T09:40:17.372Z,75.01
2019-01-15T09:42:46.615Z,75.13
2019-01-15T09:45:17.726Z,74.94
2019-01-15T09:48:07.480Z,74.87
2019-01-15T09:50:36.932Z,74.46
2019-01-15T09:53:06.200Z,74.99
2019-01-15T09:55:35.851Z,74.95
2019-01-15T09:58:05.696Z,74.50
2019-01-15T10:00:34.949Z,74.89
2019-01-15T10:03:04.650Z,75.07
2019-01-15T10:05:34.066Z,75.46
2019-01-15T10:08:03.366Z,74.42
2019-01-15T10:10:32.600Z,74.98
2019-01-15T10:13:01.818Z,73.84
2019-01-15T10:15:31.068Z,74.73
2019-01-15T10:18:00.286Z,75.05
2019-01-15T10:20:29.520Z,74.53
2019-01-15T10:22:58.820Z,74.67
2019-01-15T10:25:29.421Z,74.65
2019-01-15T10:27:58.906Z,74.86
2019-01-15T10:30:36.411Z,75.81
2019-01-15T10:33:17.246Z,75.16
2019-01-15T10:36:02.992Z,75.19
2019-01-15T10:38:33.608Z,75.22
2019-01-15T10:41:03.790Z,75.34
2019-01-15T10:43:34.563Z,75.07
2019-01-15T10:46:05.230Z,75.03
2019-01-15T10:48:34.445Z,74.49
2019-01-15T10:51:04.055Z,74.60
2019-01-15T10:53:33.267Z,74.93
2019-01-15T10:56:02.481Z,74.73
2019-01-15T10:58:31.711Z,74.83
2019-01-15T11:01:01.071Z,74.83
2019-01-15T11:03:30.636Z,74.01
2019-01-15T11:05:59.899Z,74.19
2019-01-15T11:08:29.201Z,73.82
2019-01-15T11:10:58.496Z,74.17
2019-01-15T11:13:27.764Z,74.07
2019-01-15T11:15:57.010Z,74.18
2019-01-15T11:18:26.316Z,74.55
2019-01-15T11:20:55.591Z,74.18
2019-01-15T11:23:24.872Z,74.39
2019-01-15T11:25:54.117Z,75.44
2019-01-15T11:28:23.547Z,75.16
2019-01-15T11:30:52.809Z,74.77
2019-01-15T11:33:22.063Z,74.84
2019-01-15T11:35:51.359Z,74.47
2019-01-15T11:38:20.638Z,74.69
2019-01-15T11:40:49.931Z,74.83
2019-01-15T11:43:19.217Z,75.31
2019-01-15T11:45:48.592Z,75.04
2019-01-15T11:48:17.940Z,74.90
2019-01-15T11:50:47.233Z,75.06
2019-01-15T11:53:16.743Z,75.31
2019-01-15T11:55:46.065Z,75.14
2019-01-15T11:58:15.461Z,75.88
2019-01-15T12:00:53.434Z,75.41
2019-01-15T12:03:30.842Z,75.64
2019-01-15T12:06:27.952Z,75.66
2019-01-15T12:09:19.630Z,75.19
2019-01-15T12:12:13.870Z,75.63
2019-01-15T12:15:00.486Z,75.88
2019-01-15T12:17:50.160Z,75.60
2019-01-15T12:20:38.474Z,75.67
2019-01-15T12:23:23.468Z,75.29
2019-01-15T12:26:01.276Z,75.36
2019-01-15T12:28:55.492Z,75.35
2019-01-15T12:31:42.416Z,74.67
2019-01-15T12:34:33.438Z,74.99
2019-01-15T12:37:27.867Z,74.86
2019-01-15T12:40:14.971Z,74.65
2019-01-15T12:43:09.066Z,74.23
2019-01-15T12:46:00.109Z,75.28
2019-01-15T12:48:54.203Z,75.02
2019-01-15T12:51:45.281Z,75.45
2019-01-15T12:54:32.225Z,75.62
2019-01-15T12:57:38.732Z,75.07
2019-01-15T13:00:43.456Z,74.74
2019-01-15T13:03:31.740Z,74.91
2019-01-15T13:06:31.411Z,74.83
2019-01-15T13:09:28.492Z,73.96
2019-01-15T13:12:16.675Z,73.69
2019-01-15T13:15:10.644Z,73.68
2019-01-15T13:18:01.714Z,73.15
2019-01-15T13:20:48.453Z,73.83
2019-01-15T13:23:39.090Z,72.91
2019-01-15T13:26:36.204Z,73.23
2019-01-15T13:29:33.514Z,72.88
2019-01-15T13:32:21.755Z,72.62
2019-01-15T13:35:01.956Z,72.35
2019-01-15T13:37:48.663Z,72.19
2019-01-15T13:40:34.354Z,71.50
2019-01-15T13:43:25.570Z,71.85
2019-01-15T13:46:06.999Z,72.30
2019-01-15T13:48:55.401Z,71.94
2019-01-15T13:51:43.828Z,71.74
2019-01-15T13:54:41.097Z,72.68
2019-01-15T13:57:29.301Z,72.09
2019-01-15T14:00:14.618Z,71.88
2019-01-15T14:03:01.416Z,71.90
2019-01-15T14:05:49.621Z,71.90
2019-01-15T14:08:36.539Z,72.14
2019-01-15T14:11:24.509Z,72.39
2019-01-15T14:14:18.752Z,72.04
2019-01-15T14:17:04.043Z,72.60
2019-01-15T14:19:50.936Z,70.44
2019-01-15T14:22:55.187Z,70.05
2019-01-15T14:25:42.343Z,70.85
2019-01-15T14:28:29.203Z,71.54
2019-01-15T14:31:12.767Z,71.52
2019-01-15T14:34:19.102Z,72.08
2019-01-15T14:37:05.588Z,70.79
2019-01-15T14:39:59.680Z,71.24
2019-01-15T14:42:45.970Z,71.70
2019-01-15T14:45:33.248Z,71.73
2019-01-15T14:48:21.582Z,71.11
2019-01-15T14:51:05.459Z,71.93
2019-01-15T14:53:53.814Z,72.24
2019-01-15T14:56:42.014Z,71.82
2019-01-15T14:59:36.027Z,72.16
2019-01-15T15:02:22.888Z,71.81
2019-01-15T15:05:09.897Z,72.25
2019-01-15T15:07:58.062Z,72.56
2019-01-15T15:10:52.264Z,72.56
2019-01-15T15:13:44.239Z,72.56
2019-01-15T15:16:31.112Z,72.43
2019-01-15T15:19:17.140Z,72.14
2019-01-15T15:22:11.458Z,72.85
2019-01-15T15:24:51.920Z,72.90
2019-01-15T15:27:38.793Z,73.65
2019-01-15T15:30:32.837Z,73.37
2019-01-15T15:33:21.000Z,73.21
2019-01-15T15:36:20.871Z,73.52
2019-01-15T15:39:07.617Z,73.90
2019-01-15T15:41:47.622Z,73.53
2019-01-15T15:44:34.449Z,73.88
2019-01-15T15:47:25.624Z,73.30
2019-01-15T15:50:04.646Z,73.42
2019-01-15T15:52:49.943Z,73.08
2019-01-15T15:55:36.909Z,73.12
2019-01-15T15:58:23.640Z,73.64
2019-01-15T16:01:17.617Z,73.84
2019-01-15T16:04:09.646Z,73.88
2019-01-15T16:07:00.628Z,73.22
2019-01-15T16:09:47.297Z,73.44
2019-01-15T16:12:35.504Z,72.90
2019-01-15T16:15:23.651Z,73.20
2019-01-15T16:18:09.820Z,73.31
2019-01-15T16:21:16.343Z,72.93
2019-01-15T16:24:07.206Z,73.15
2019-01-15T16:26:45.170Z,73.53
2019-01-15T16:29:33.370Z,73.28
2019-01-15T16:32:20.904Z,73.55
2019-01-15T16:35:05.690Z,73.40
2019-01-15T16:37:44.411Z,73.25
2019-01-15T16:40:31.354Z,73.43
2019-01-15T16:43:28.677Z,73.41
2019-01-15T16:46:07.076Z,73.99
2019-01-15T16:48:53.881Z,73.60
2019-01-15T16:51:45.020Z,73.67
2019-01-15T16:54:31.840Z,73.67
2019-01-15T16:57:31.508Z,73.37
2019-01-15T17:00:18.368Z,73.57
2019-01-15T17:02:56.832Z,73.69
2019-01-15T17:05:45.069Z,73.92
2019-01-15T17:08:33.357Z,74.14
2019-01-15T17:11:10.716Z,73.80
2019-01-15T17:14:14.239Z,73.72
2019-01-15T17:17:05.257Z,74.24
2019-01-15T17:20:08.585Z,74.14
2019-01-15T17:22:59.566Z,74.64
2019-01-15T17:25:43.711Z,74.81
2019-01-15T17:28:41.110Z,74.95
2019-01-15T17:31:26.849Z,74.98
2019-01-15T17:34:13.688Z,74.74
2019-01-15T17:37:01.852Z,75.14
2019-01-15T17:39:53.044Z,75.17
2019-01-15T17:42:47.177Z,75.47
2019-01-15T17:45:38.148Z,75.11
2019-01-15T17:48:26.430Z,75.41
2019-01-15T17:51:13.429Z,75.30
2019-01-15T17:54:00.751Z,75.00
2019-01-15T17:56:57.841Z,75.39
2019-01-15T17:59:47.409Z,75.39
2019-01-15T18:02:44.838Z,75.24
2019-01-15T18:05:36.454Z,75.06
2019-01-15T18:08:33.776Z,75.06
2019-01-15T18:11:27.241Z,74.99
2019-01-15T18:14:27.224Z,74.99
2019-01-15T18:17:23.584Z,75.52
2019-01-15T18:20:00.664Z,74.98
2019-01-15T18:22:47.631Z,75.07
2019-01-15T18:25:45.034Z,75.20
2019-01-15T18:28:27.086Z,75.39
2019-01-15T18:31:30.362Z,75.06
2019-01-15T18:34:21.340Z,75.20
2019-01-15T18:37:21.530Z,75.46
2019-01-15T18:40:27.843Z,75.38
2019-01-15T18:43:25.257Z,75.09
2019-01-15T18:46:13.450Z,75.70
2019-01-15T18:49:13.676Z,75.76
2019-01-15T18:52:02.036Z,75.28
2019-01-15T18:54:56.793Z,75.45
2019-01-15T18:58:03.186Z,75.43
2019-01-15T19:01:06.519Z,75.68
2019-01-15T19:03:57.774Z,74.90
2019-01-15T19:06:39.274Z,74.75
2019-01-15T19:09:36.899Z,74.87
2019-01-15T19:12:23.617Z,74.29
2019-01-15T19:15:11.782Z,74.57
2019-01-15T19:17:58.672Z,74.18
2019-01-15T19:20:58.954Z,74.44
2019-01-15T19:23:45.803Z,74.15
2019-01-15T19:26:32.884Z,74.44
2019-01-15T19:29:11.558Z,74.48
2019-01-15T19:32:08.823Z,73.71
2019-01-15T19:34:59.875Z,73.69
2019-01-15T19:37:46.661Z,74.01
2019-01-15T19:40:27.772Z,73.41
2019-01-15T19:43:14.824Z,73.89
2019-01-15T19:45:55.865Z,73.61
2019-01-15T19:48:42.768Z,73.17
2019-01-15T19:51:39.977Z,73.28
2019-01-15T19:54:37.005Z,73.44
2019-01-15T19:57:27.981Z,73.09
2019-01-15T20:00:12.053Z,73.94
2019-01-15T20:03:09.312Z,73.87
2019-01-15T20:06:07.696Z,73.69
2019-01-15T20:08:55.875Z,73.14
2019-01-15T20:11:42.649Z,73.68
2019-01-15T20:14:29.490Z,73.20
2019-01-15T20:17:26.747Z,74.17
2019-01-15T20:20:22.225Z,73.90
2019-01-15T20:23:09.006Z,73.51
2019-01-15T20:25:57.124Z,73.90
2019-01-15T20:28:39.560Z,73.40
2019-01-15T20:31:37.145Z,73.90
2019-01-15T20:34:34.078Z,73.76
2019-01-15T20:37:31.306Z,74.17
2019-01-15T20:40:11.501Z,73.91
2019-01-15T20:43:02.562Z,74.00
2019-01-15T20:45:50.785Z,74.04
2019-01-15T20:48:34.392Z,74.39
2019-01-15T20:51:10.653Z,74.16
2019-01-15T20:53:57.629Z,74.53
2019-01-15T20:56:44.575Z,74.27
2019-01-15T20:59:35.572Z,74.94
2019-01-15T21:02:35.821Z,74.83
2019-01-15T21:05:24.034Z,74.53
2019-01-15T21:08:12.227Z,74.39
2019-01-15T21:11:07.719Z,74.27
2019-01-15T21:13:51.325Z,74.74
2019-01-15T21:16:38.600Z,74.52
2019-01-15T21:19:35.749Z,74.34
2019-01-15T21:22:20.131Z,74.64
2019-01-15T21:24:58.483Z,74.45
2019-01-15T21:27:39.160Z,74.79
2019-01-15T21:30:29.244Z,74.32
2019-01-15T21:33:15.996Z,74.45
2019-01-15T21:36:02.867Z,74.68
2019-01-15T21:38:51.073Z,74.35
2019-01-15T21:41:37.931Z,74.66
2019-01-15T21:44:31.924Z,74.35
2019-01-15T21:47:16.118Z,74.36
2019-01-15T21:50:02.907Z,73.95
2019-01-15T21:52:49.601Z,73.72
2019-01-15T21:55:43.710Z,73.76
2019-01-15T21:58:35.078Z,73.95
2019-01-15T22:01:41.730Z,73.85
2019-01-15T22:04:29.945Z,73.49
2019-01-15T22:07:18.122Z,73.65
2019-01-15T22:10:15.264Z,73.87
2019-01-15T22:13:02.469Z,73.67
2019-01-15T22:16:02.628Z,74.02
2019-01-15T22:18:43.798Z,73.72
2019-01-15T22:21:26.442Z,73.82
2019-01-15T22:24:13.139Z,73.39
2019-01-15T22:27:00.033Z,73.37
2019-01-15T22:30:03.361Z,73.73
2019-01-15T22:32:50.077Z,74.01
2019-01-15T22:35:47.240Z,73.89
2019-01-15T22:38:32.861Z,73.72
2019-01-15T22:41:24.044Z,73.78
2019-01-15T22:44:24.599Z,74.04
2019-01-15T22:47:30.986Z,73.68
2019-01-15T22:50:18.067Z,73.98
2019-01-15T22:53:11.563Z,73.84
2019-01-15T22:55:58.440Z,74.15
2019-01-15T22:59:04.822Z,73.84
2019-01-15T23:01:57.732Z,74.02
2019-01-15T23:04:39.726Z,74.12
2019-01-15T23:07:26.123Z,73.52
2019-01-15T23:10:13.344Z,73.93
2019-01-15T23:13:07.398Z,73.75
2019-01-15T23:16:00.874Z,73.84
2019-01-15T23:18:38.328Z,73.84
2019-01-15T23:21:38.993Z,73.75
2019-01-15T23:24:27.214Z,73.76
2019-01-15T23:27:24.261Z,73.60
2019-01-15T23:30:27.549Z,73.68
2019-01-15T23:33:06.756Z,73.93
2019-01-15T23:36:10.132Z,74.08
2019-01-15T23:39:04.435Z,73.89
2019-01-15T23:41:55.367Z,74.11
2019-01-15T23:44:49.358Z,74.07
2019-01-15T23:47:43.512Z,74.26
2019-01-15T23:50:30.267Z,74.60
2019-01-15T23:53:21.561Z,74.51
2019-01-15T23:56:08.365Z,74.85
2019-01-15T23:59:05.926Z,74.89
